Willow Creek, California
Current Conditions -  °F | °C
As of 6:53 AM on Monday 24 Nov 2014 (Local Time) from KACV Reporting Station
Overcast Overcast  
Wind Chill: 44°   Ceiling: 7500
Heat Index: 47°   Visibility: 10mi
Dew Point: 41°   Wind: 6mph
Humidity: 80%   Direction: 80°E
Pressure: 30.38"   Gusts: NA
Location:  40.94°N, 123.63°W
Report Text: KACV 241453Z AUTO 08005KT 10SM BKN075 OVC090 08/05 A3038 RMK AO2 SLP295 T00830050 53012
Loading
Personal Weather Stations






























Interactive Weather Map New forecast layout! Learn more

10-Day Weather Forecast

Advertisements
Track Severe Weather on mobile